輕井澤町, 日本

2015年2月28日 14時14分 (GMT +0900)
Asamayama Fumoto | Change Station
CLOSE
Current Station
個人氣象站
Location: Karuizawa Town, NAGANO-KEN
海拔: 3658 ft
附近的氣象站

海拔 3658 ft 36.35 °N, 138.52 °E | Updated 8 seconds ago

Clear
晴天
39.8 °F
感覺像 40 °F
0.5
風 變化 風 來自 西北
Gusts 0.5 英里每小時

今日
高 -- | 低 -- °F
--% 降水機率
昨天
高 -- | 低 -- °F
Precip. -- 英寸
6:18 AM 5:38 PM
盈凸月, 74% visible
氣壓 30.15 英寸
能見度 -9999.0 英里
多雲
風寒指數 40 °F
露點 20 °F
濕度 48%
降雨量 0.00 英寸
積雪深度 不適用。
紫外線 不適用。
花粉 不適用。
空氣質素 不適用。
Flu Activity 不適用。
METAR RJAF 280500Z VRB03KT CAVOK 05/M09 Q1021

More Conditions Fewer Conditions

氣壓 30.15 英寸
能見度 -9999.0 英里
多雲
風寒指數 40 °F
露點 20 °F
濕度 48%
降雨量 0.00 英寸
積雪深度 不適用。
紫外線 不適用。
花粉 不適用。
空氣質素 不適用。
Flu Activity 不適用。
METAR RJAF 280500Z VRB03KT CAVOK 05/M09 Q1021

More Conditions Fewer Conditions

10-Day Weather Forecast

Almanac

天文

Feb. 28, 2015 昇起 降落
實際時間
民用曙暮光
航海曙暮光
天文學微明
月亮
可見光的長度
白晝時間
Tomorrow will be .
, % of the Moon is Illuminated

今天之最

國家高溫 國家低溫

Community

WunderPhotos

Upload Photos

1,800,971 照片已上傳!

WunderBlogs® & News

Nearby

空氣質素

  空氣質素 空氣質素指數 污染物
Not available.

積雪量

Station 深度 海拔

地震活動

城市 距離 時間和日期
顯示的最小幅度是2.5。

沿海水溫

地點 溫度

附近的氣象站